Time;durP1;ratioP1;P1;durP2;ratioP2;P2;SDS_P1;SDS_P2;PMS_P1;PMS_P2;Temp;Humidity;BMP_temperature;BMP_pressure;BME280_temperature;BME280_humidity;BME280_pressure;Samples;Min_cycle;Max_cycle;Signal;HPM_P1;HPM_P2
2021/01/01 00:01:44;;;;;;;33.15;19.00;;;23.40;32.70;;;;;;6092137;28;83164;-68
2021/01/01 00:04:45;;;;;;;33.63;19.92;;;23.40;32.70;;;;;;6091586;28;88670;-68
2021/01/01 00:07:45;;;;;;;33.00;18.05;;;23.40;32.30;;;;;;6090190;28;83637;-68
2021/01/01 00:10:46;;;;;;;36.38;19.77;;;23.40;32.20;;;;;;6091050;28;83802;-69
2021/01/01 00:13:46;;;;;;;29.02;18.55;;;23.40;32.10;;;;;;6094481;28;83900;-68
2021/01/01 00:16:47;;;;;;;31.63;18.88;;;23.50;31.90;;;;;;6095815;28;82876;-67
2021/01/01 00:19:47;;;;;;;31.98;18.67;;;23.50;31.70;;;;;;6093429;28;83641;-68
2021/01/01 00:22:48;;;;;;;31.35;19.25;;;23.50;31.70;;;;;;6095223;28;83325;-67
2021/01/01 00:25:48;;;;;;;32.78;19.02;;;23.50;31.80;;;;;;6099755;28;83114;-67
2021/01/01 00:28:49;;;;;;;33.38;19.52;;;23.50;31.70;;;;;;6100069;28;83523;-68
2021/01/01 00:31:50;;;;;;;31.95;18.27;;;23.50;31.60;;;;;;6089047;28;83452;-68
2021/01/01 00:34:50;;;;;;;35.17;20.10;;;23.50;31.70;;;;;;6088023;28;87816;-68
2021/01/01 00:37:50;;;;;;;30.42;18.83;;;23.50;31.60;;;;;;6098087;28;83469;-67
2021/01/01 00:40:51;;;;;;;30.33;18.55;;;23.50;31.60;;;;;;6075997;28;83225;-67
2021/01/01 00:43:51;;;;;;;35.03;19.23;;;23.50;31.50;;;;;;6093989;28;82767;-67
2021/01/01 00:46:52;;;;;;;31.80;18.60;;;23.50;31.60;;;;;;6089940;28;83591;-67
2021/01/01 00:49:52;;;;;;;32.38;18.45;;;23.50;31.60;;;;;;6097582;28;83220;-67
2021/01/01 00:52:53;;;;;;;36.45;19.58;;;23.50;31.40;;;;;;6099297;28;83584;-68
2021/01/01 00:55:54;;;;;;;30.20;19.10;;;23.40;31.40;;;;;;6105658;28;84153;-68
2021/01/01 00:58:54;;;;;;;34.78;19.88;;;23.60;31.40;;;;;;6105224;28;85967;-68
2021/01/01 01:01:55;;;;;;;30.60;19.25;;;23.60;31.10;;;;;;6095671;28;83434;-67
2021/01/01 01:04:55;;;;;;;32.17;19.15;;;23.60;31.30;;;;;;6093381;28;88738;-69
2021/01/01 01:07:56;;;;;;;31.02;18.98;;;23.60;31.10;;;;;;6095214;28;83871;-68
2021/01/01 01:10:56;;;;;;;31.45;18.60;;;23.60;31.10;;;;;;6098673;28;84013;-68
2021/01/01 01:13:57;;;;;;;28.48;17.92;;;23.70;31.00;;;;;;6098169;28;84077;-68
2021/01/01 01:16:57;;;;;;;32.67;18.73;;;23.70;30.90;;;;;;6110092;28;85748;-68
2021/01/01 01:19:58;;;;;;;29.80;18.48;;;23.80;30.80;;;;;;6118344;28;84211;-67
2021/01/01 01:22:58;;;;;;;30.33;18.08;;;23.70;30.90;;;;;;6096233;28;83239;-67
2021/01/01 01:25:59;;;;;;;34.22;18.88;;;23.70;30.70;;;;;;6102738;28;83266;-67
2021/01/01 01:28:59;;;;;;;31.88;18.08;;;23.80;30.80;;;;;;6096486;28;83387;-67
2021/01/01 01:32:00;;;;;;;31.13;18.55;;;23.70;30.60;;;;;;6093748;28;87586;-66
2021/01/01 01:35:00;;;;;;;30.83;17.80;;;23.70;30.50;;;;;;6093381;28;84371;-66
2021/01/01 01:38:01;;;;;;;35.05;19.50;;;23.70;30.80;;;;;;6099301;28;83822;-67
2021/01/01 01:41:01;;;;;;;32.40;18.45;;;23.60;30.90;;;;;;6092102;28;83320;-67
2021/01/01 01:44:02;;;;;;;31.63;18.75;;;23.60;30.70;;;;;;6093309;28;83045;-67
2021/01/01 01:47:02;;;;;;;29.95;18.27;;;23.60;30.70;;;;;;6103229;28;84019;-66
2021/01/01 01:50:03;;;;;;;30.08;17.40;;;23.60;30.70;;;;;;6094097;28;83467;-66
2021/01/01 01:53:03;;;;;;;27.75;16.65;;;23.60;31.20;;;;;;6093860;28;83890;-65
2021/01/01 01:56:04;;;;;;;33.45;18.05;;;23.60;31.40;;;;;;6101787;28;82997;-66
2021/01/01 01:59:04;;;;;;;30.00;16.05;;;23.50;31.40;;;;;;6100161;28;85571;-66
2021/01/01 02:02:05;;;;;;;35.63;17.73;;;23.50;31.30;;;;;;6094481;28;83745;-67
2021/01/01 02:05:05;;;;;;;27.77;16.23;;;23.50;31.30;;;;;;6093467;28;85099;-67
2021/01/01 02:08:06;;;;;;;30.92;18.27;;;23.50;31.50;;;;;;6097113;28;83434;-68
2021/01/01 02:11:06;;;;;;;27.63;15.98;;;23.40;31.60;;;;;;6101319;28;83418;-68
2021/01/01 02:14:07;;;;;;;29.35;17.30;;;23.40;31.80;;;;;;6094965;28;83339;-67
2021/01/01 02:17:07;;;;;;;29.73;16.38;;;23.40;32.20;;;;;;6092722;28;83757;-67
2021/01/01 02:20:08;;;;;;;31.60;18.05;;;23.30;32.00;;;;;;6098300;28;82967;-67
2021/01/01 02:23:08;;;;;;;30.08;18.00;;;23.30;32.10;;;;;;6101200;28;83562;-67
2021/01/01 02:26:09;;;;;;;26.30;15.63;;;23.30;32.30;;;;;;6101653;28;83164;-66
2021/01/01 02:29:10;;;;;;;30.65;17.08;;;23.20;32.20;;;;;;6100009;28;83449;-68
2021/01/01 02:32:10;;;;;;;38.10;19.13;;;23.20;32.30;;;;;;6098544;28;83117;-67
2021/01/01 02:35:11;;;;;;;31.40;17.42;;;23.20;32.00;;;;;;6100358;28;83554;-67
2021/01/01 02:38:11;;;;;;;30.52;17.58;;;23.10;31.90;;;;;;6094570;28;83259;-67
2021/01/01 02:41:12;;;;;;;33.50;18.50;;;23.10;31.80;;;;;;6116700;28;84485;-68
2021/01/01 02:44:12;;;;;;;32.53;18.73;;;23.00;31.70;;;;;;6100764;28;84464;-68
2021/01/01 02:47:13;;;;;;;33.85;18.05;;;23.00;31.80;;;;;;6092961;28;83495;-68
2021/01/01 02:50:16;;;;;;;32.08;17.15;;;23.00;31.80;;;;;;6095712;28;84555;-67
2021/01/01 02:53:16;;;;;;;32.65;18.05;;;23.00;31.80;;;;;;6097576;28;83436;-67
2021/01/01 02:56:17;;;;;;;35.33;17.88;;;23.00;32.10;;;;;;6099810;28;83561;-69
2021/01/01 02:59:18;;;;;;;31.63;18.27;;;22.90;32.10;;;;;;6100954;28;83333;-68
2021/01/01 03:02:18;;;;;;;33.92;18.60;;;22.90;32.00;;;;;;6095711;28;83541;-67
2021/01/01 03:05:19;;;;;;;31.60;17.60;;;22.90;32.20;;;;;;6112573;28;85765;-67
2021/01/01 03:08:19;;;;;;;32.78;19.38;;;22.90;32.40;;;;;;6097565;28;84738;-67
2021/01/01 03:11:20;;;;;;;33.55;17.83;;;22.90;32.40;;;;;;6096016;28;83404;-67
2021/01/01 03:14:20;;;;;;;30.08;15.85;;;22.90;32.20;;;;;;6092051;28;83674;-66
2021/01/01 03:17:21;;;;;;;29.40;17.00;;;22.90;32.60;;;;;;6091129;28;83854;-67
2021/01/01 03:20:21;;;;;;;31.85;17.48;;;22.80;32.50;;;;;;6089516;28;83111;-67
2021/01/01 03:23:22;;;;;;;31.90;17.25;;;22.80;33.10;;;;;;6096842;28;83274;-67
2021/01/01 03:26:22;;;;;;;32.58;16.48;;;22.80;32.50;;;;;;6087582;28;84170;-67
2021/01/01 03:29:23;;;;;;;29.00;15.63;;;22.80;32.40;;;;;;6096481;28;84023;-69
2021/01/01 03:32:23;;;;;;;32.55;16.77;;;22.80;32.40;;;;;;6088502;28;83141;-69
2021/01/01 03:35:26;;;;;;;35.45;17.25;;;22.80;32.70;;;;;;6100569;28;84332;-68
2021/01/01 03:38:27;;;;;;;32.10;17.55;;;22.80;32.40;;;;;;6109738;28;84335;-67
2021/01/01 03:41:27;;;;;;;32.20;16.42;;;22.70;32.20;;;;;;6099091;28;83344;-67
2021/01/01 03:44:28;;;;;;;32.95;17.73;;;22.70;32.30;;;;;;6093608;28;83595;-67
2021/01/01 03:47:28;;;;;;;29.35;17.00;;;22.70;32.30;;;;;;6100265;28;85852;-68
2021/01/01 03:50:29;;;;;;;31.23;17.70;;;22.70;32.30;;;;;;6087869;28;84233;-67
2021/01/01 03:53:29;;;;;;;32.38;17.10;;;22.70;32.30;;;;;;6095215;28;85972;-67
2021/01/01 03:56:30;;;;;;;31.30;16.50;;;22.70;32.30;;;;;;6096220;28;86090;-67
2021/01/01 03:59:30;;;;;;;28.58;16.88;;;22.70;32.70;;;;;;6088204;28;84108;-67
2021/01/01 04:02:31;;;;;;;32.55;17.85;;;22.60;32.20;;;;;;6097416;28;83332;-67
2021/01/01 04:05:31;;;;;;;33.95;17.88;;;22.60;32.20;;;;;;6081114;28;83420;-66
2021/01/01 04:08:32;;;;;;;34.25;18.70;;;22.60;32.50;;;;;;6100412;28;83085;-66
2021/01/01 04:11:32;;;;;;;34.10;18.08;;;22.60;32.10;;;;;;6086531;28;83109;-67
2021/01/01 04:14:33;;;;;;;34.78;18.02;;;22.60;32.40;;;;;;6099899;28;83476;-66
2021/01/01 04:17:33;;;;;;;33.95;18.58;;;22.70;32.30;;;;;;6066558;28;83381;-67
2021/01/01 04:20:34;;;;;;;21.88;13.25;;;22.50;32.50;;;;;;6092153;28;83264;-67
2021/01/01 04:23:35;;;;;;;33.05;18.05;;;22.60;34.50;;;;;;6084051;28;83800;-67
2021/01/01 04:26:35;;;;;;;35.60;19.13;;;22.60;32.50;;;;;;6090263;28;82987;-65
2021/01/01 04:29:36;;;;;;;37.42;19.02;;;22.70;31.80;;;;;;6072306;28;83877;-64
2021/01/01 04:32:36;;;;;;;34.10;18.85;;;22.70;31.60;;;;;;6094308;28;83101;-65
2021/01/01 04:35:37;;;;;;;33.65;19.23;;;22.70;31.80;;;;;;6098696;28;85323;-66
2021/01/01 04:38:37;;;;;;;37.42;19.23;;;22.80;31.60;;;;;;6096802;28;84187;-64
2021/01/01 04:41:38;;;;;;;39.22;20.08;;;22.80;31.40;;;;;;6099860;28;83107;-65
2021/01/01 04:44:38;;;;;;;36.20;19.25;;;22.80;31.40;;;;;;6090168;28;83768;-66
2021/01/01 04:47:39;;;;;;;35.58;19.15;;;22.80;31.50;;;;;;6085808;28;84479;-66
2021/01/01 04:50:40;;;;;;;31.60;16.65;;;22.80;31.60;;;;;;6093395;28;83910;-65
2021/01/01 04:53:40;;;;;;;34.70;18.73;;;22.90;33.90;;;;;;6101582;28;83209;-65
2021/01/01 04:56:41;;;;;;;33.63;18.88;;;23.00;31.60;;;;;;6103123;28;85412;-65
2021/01/01 04:59:41;;;;;;;33.03;17.70;;;23.00;31.40;;;;;;6097673;28;83631;-65
2021/01/01 05:02:42;;;;;;;35.35;18.25;;;23.00;32.50;;;;;;6097412;28;83596;-64
2021/01/01 05:05:42;;;;;;;32.78;17.75;;;23.00;32.70;;;;;;6103887;28;83549;-65
2021/01/01 05:08:43;;;;;;;30.77;17.52;;;23.00;32.10;;;;;;6101298;28;83858;-66
2021/01/01 05:11:43;;;;;;;34.72;18.48;;;23.10;33.30;;;;;;6101239;28;83932;-65
2021/01/01 05:14:44;;;;;;;30.10;16.52;;;23.10;33.40;;;;;;6100914;28;83741;-65
2021/01/01 05:17:44;;;;;;;36.30;18.27;;;23.00;35.60;;;;;;6090519;28;83727;-65
2021/01/01 05:20:45;;;;;;;30.42;17.10;;;23.10;34.10;;;;;;6090870;28;83265;-63
2021/01/01 05:23:46;;;;;;;36.65;19.50;;;23.10;33.80;;;;;;6089792;28;83120;-63
2021/01/01 05:26:46;;;;;;;31.85;16.92;;;23.10;33.30;;;;;;6096927;28;83246;-64
2021/01/01 05:29:47;;;;;;;34.45;18.27;;;23.10;34.10;;;;;;6098123;28;83977;-64
2021/01/01 05:32:47;;;;;;;38.88;21.13;;;23.10;33.20;;;;;;6099737;28;83532;-65
2021/01/01 05:35:48;;;;;;;34.45;18.15;;;23.10;32.70;;;;;;6098455;28;85780;-66
2021/01/01 05:38:48;;;;;;;33.55;18.02;;;23.20;33.00;;;;;;6098965;28;83800;-66
2021/01/01 05:41:49;;;;;;;33.72;19.40;;;23.20;33.10;;;;;;6100115;28;83425;-62
2021/01/01 05:44:49;;;;;;;37.90;20.77;;;23.20;34.50;;;;;;6094762;28;84406;-59
2021/01/01 05:47:50;;;;;;;33.97;17.75;;;23.30;31.70;;;;;;6098416;28;83207;-60
2021/01/01 05:50:50;;;;;;;26.35;14.93;;;23.30;32.10;;;;;;6087312;28;84126;-61
2021/01/01 05:53:51;;;;;;;23.23;13.13;;;23.30;33.80;;;;;;6090251;28;83792;-60
2021/01/01 05:56:51;;;;;;;24.00;12.15;;;23.30;34.70;;;;;;6097552;28;84459;-60
2021/01/01 05:59:52;;;;;;;22.58;12.48;;;23.30;35.00;;;;;;6093548;28;83330;-61
2021/01/01 06:02:52;;;;;;;22.33;11.80;;;23.30;35.60;;;;;;6097833;28;83598;-61
2021/01/01 06:05:53;;;;;;;20.13;11.85;;;23.40;36.00;;;;;;6095144;28;86202;-62
2021/01/01 06:08:53;;;;;;;24.40;12.15;;;23.40;36.60;;;;;;6099614;28;82929;-62
2021/01/01 06:11:54;;;;;;;20.55;10.15;;;23.30;36.60;;;;;;6096586;28;83504;-62
2021/01/01 06:14:55;;;;;;;17.20;9.13;;;23.30;37.20;;;;;;6079598;28;83486;-62
2021/01/01 06:17:55;;;;;;;18.17;9.85;;;23.30;38.00;;;;;;6103090;28;82884;-62
2021/01/01 06:20:55;;;;;;;20.38;10.90;;;23.30;38.10;;;;;;6102854;28;81052;-62
2021/01/01 06:23:56;;;;;;;20.63;11.18;;;23.40;38.50;;;;;;6099274;28;83210;-62
2021/01/01 06:26:56;;;;;;;21.58;10.70;;;23.40;38.60;;;;;;6092440;28;83868;-61
2021/01/01 06:29:57;;;;;;;19.02;10.30;;;23.40;38.40;;;;;;6096294;28;83040;-61
2021/01/01 06:32:57;;;;;;;18.45;10.65;;;23.40;38.70;;;;;;6100198;28;83643;-61
2021/01/01 06:35:58;;;;;;;19.90;9.85;;;23.50;39.00;;;;;;6094824;28;85114;-62
2021/01/01 06:38:58;;;;;;;21.27;11.07;;;23.40;39.10;;;;;;6099389;28;84153;-67
2021/01/01 06:41:59;;;;;;;17.27;9.45;;;23.40;39.10;;;;;;6094067;28;85370;-70
2021/01/01 06:44:59;;;;;;;20.10;10.27;;;23.50;39.50;;;;;;6104254;28;81953;-62
2021/01/01 06:48:00;;;;;;;20.05;9.55;;;23.50;39.70;;;;;;6101026;28;83222;-61
2021/01/01 06:51:00;;;;;;;17.27;8.98;;;23.40;40.00;;;;;;6098673;28;82837;-62
2021/01/01 06:54:01;;;;;;;20.20;10.82;;;23.40;40.20;;;;;;6102473;28;81031;-62
2021/01/01 06:57:01;;;;;;;20.40;10.25;;;23.40;40.20;;;;;;6085520;28;83898;-62
2021/01/01 07:00:02;;;;;;;15.82;8.82;;;23.30;40.60;;;;;;6095389;28;83997;-61
2021/01/01 07:03:02;;;;;;;18.67;8.80;;;23.30;41.10;;;;;;6094883;28;83080;-61
2021/01/01 07:06:03;;;;;;;13.98;8.32;;;23.20;41.30;;;;;;6097280;28;82060;-61
2021/01/01 07:09:03;;;;;;;15.50;9.00;;;23.20;41.50;;;;;;6098445;28;81732;-61
2021/01/01 07:12:04;;;;;;;16.10;9.10;;;23.20;41.20;;;;;;6102152;28;81415;-60
2021/01/01 07:15:04;;;;;;;19.17;7.82;;;23.10;41.90;;;;;;6101568;28;81030;-65
2021/01/01 07:18:05;;;;;;;18.35;9.43;;;23.20;41.60;;;;;;6095885;28;80619;-65
2021/01/01 07:21:05;;;;;;;17.85;9.77;;;23.20;41.50;;;;;;6097713;28;82528;-63
2021/01/01 07:24:06;;;;;;;18.35;8.73;;;23.20;41.90;;;;;;6097704;28;80747;-62
2021/01/01 07:27:06;;;;;;;16.38;8.43;;;23.20;41.90;;;;;;6120596;28;81437;-64
2021/01/01 07:30:07;;;;;;;20.20;9.07;;;23.30;41.70;;;;;;6101987;28;81543;-64
2021/01/01 07:33:07;;;;;;;312.20;91.15;;;23.20;41.30;;;;;;6114894;28;81143;-65
2021/01/01 07:36:08;;;;;;;775.10;263.08;;;23.30;41.60;;;;;;6099940;28;83080;-64
2021/01/01 07:39:08;;;;;;;924.85;335.83;;;23.20;41.80;;;;;;6095662;28;85815;-65
2021/01/01 07:42:09;;;;;;;799.70;273.50;;;23.30;42.00;;;;;;6091107;28;85338;-63
2021/01/01 07:45:10;;;;;;;642.42;214.88;;;23.40;41.80;;;;;;6085324;28;86391;-63
2021/01/01 07:48:10;;;;;;;535.25;162.80;;;23.30;42.40;;;;;;6086005;28;85821;-64
2021/01/01 07:51:11;;;;;;;403.35;124.88;;;23.20;42.40;;;;;;6084134;28;85861;-65
2021/01/01 07:54:11;;;;;;;327.23;95.35;;;23.30;42.40;;;;;;6097583;28;85584;-64
2021/01/01 07:57:12;;;;;;;285.30;79.35;;;23.30;42.60;;;;;;6090798;28;83996;-65
2021/01/01 08:00:12;;;;;;;191.88;61.35;;;23.30;42.60;;;;;;6098267;28;82967;-64
2021/01/01 08:03:14;;;;;;;170.18;51.13;;;23.30;42.60;;;;;;6100439;28;84092;-65
2021/01/01 08:06:14;;;;;;;119.03;39.90;;;23.20;42.40;;;;;;6092035;28;83565;-65
2021/01/01 08:09:15;;;;;;;105.35;35.83;;;23.20;42.00;;;;;;6091084;28;84713;-66
2021/01/01 08:12:15;;;;;;;97.47;32.20;;;23.20;42.50;;;;;;6094106;28;83432;-66
2021/01/01 08:15:16;;;;;;;67.47;25.88;;;23.10;42.70;;;;;;6081877;28;83241;-66
2021/01/01 08:18:18;;;;;;;67.22;23.92;;;23.10;42.60;;;;;;6096190;28;83926;-66
2021/01/01 08:21:19;;;;;;;55.13;22.83;;;23.10;43.40;;;;;;6099516;28;83923;-66
2021/01/01 08:24:19;;;;;;;55.13;20.55;;;23.10;43.60;;;;;;6110889;28;83410;-65
2021/01/01 08:27:20;;;;;;;45.10;19.38;;;23.10;44.30;;;;;;6101371;28;83594;-67
2021/01/01 08:30:20;;;;;;;40.50;17.95;;;23.10;45.20;;;;;;6098960;28;84114;-65
2021/01/01 08:33:21;;;;;;;43.85;18.45;;;23.10;46.00;;;;;;6098990;28;83886;-66
2021/01/01 08:36:21;;;;;;;38.05;16.77;;;23.20;46.80;;;;;;6093900;28;83341;-66
2021/01/01 08:39:22;;;;;;;38.22;16.23;;;23.20;47.60;;;;;;6073548;28;83609;-67
2021/01/01 08:42:23;;;;;;;31.52;16.20;;;23.20;48.00;;;;;;6098130;28;83669;-65
2021/01/01 08:45:23;;;;;;;32.58;15.90;;;23.20;48.00;;;;;;6097725;28;83458;-65
2021/01/01 08:48:24;;;;;;;35.03;14.85;;;23.20;48.20;;;;;;6098923;28;83687;-68
2021/01/01 08:51:24;;;;;;;25.10;12.40;;;23.30;48.10;;;;;;6093012;28;84881;-69
2021/01/01 08:54:25;;;;;;;26.40;12.93;;;23.30;47.50;;;;;;6096003;28;83881;-69
2021/01/01 08:57:25;;;;;;;25.30;12.32;;;23.30;46.90;;;;;;6088251;28;83977;-68
2021/01/01 09:00:26;;;;;;;21.40;10.75;;;23.40;46.40;;;;;;6092857;28;85299;-69
2021/01/01 09:03:26;;;;;;;24.52;11.88;;;23.40;46.30;;;;;;6080331;28;85957;-69
2021/01/01 09:06:27;;;;;;;23.58;11.07;;;23.30;45.90;;;;;;6097068;28;83378;-68
2021/01/01 09:09:27;;;;;;;20.88;11.43;;;23.30;45.80;;;;;;6096012;28;83495;-69
2021/01/01 09:12:28;;;;;;;21.77;11.13;;;23.30;46.00;;;;;;6094087;28;86230;-69
2021/01/01 09:15:28;;;;;;;18.98;10.98;;;23.30;45.30;;;;;;6092344;28;83796;-68
2021/01/01 09:18:29;;;;;;;19.33;9.98;;;23.40;44.90;;;;;;6086285;28;84998;-67
2021/01/01 09:21:29;;;;;;;20.05;10.60;;;23.40;44.80;;;;;;6097041;28;83592;-66
2021/01/01 09:24:30;;;;;;;18.40;9.65;;;23.30;44.70;;;;;;6087443;28;88141;-68
2021/01/01 09:27:30;;;;;;;18.75;10.43;;;23.40;44.40;;;;;;6099439;28;82955;-63
2021/01/01 09:30:31;;;;;;;16.98;9.77;;;23.30;44.30;;;;;;6097224;28;83072;-62
2021/01/01 09:33:31;;;;;;;20.73;10.63;;;23.30;43.70;;;;;;6093886;28;82955;-65
2021/01/01 09:36:32;;;;;;;19.98;10.45;;;23.20;43.40;;;;;;6097748;28;82824;-65
2021/01/01 09:39:33;;;;;;;23.45;9.98;;;23.10;43.30;;;;;;6097487;28;83998;-63
2021/01/01 09:42:33;;;;;;;19.83;10.15;;;23.20;43.60;;;;;;6088525;28;87443;-68
2021/01/01 09:45:34;;;;;;;20.73;10.13;;;23.20;43.70;;;;;;6092750;28;83734;-66
2021/01/01 09:48:34;;;;;;;22.73;11.25;;;23.10;44.00;;;;;;6098826;28;83842;-65
2021/01/01 09:51:35;;;;;;;21.05;11.80;;;23.20;43.50;;;;;;6097334;28;83433;-63
2021/01/01 09:54:35;;;;;;;26.60;13.88;;;23.20;42.80;;;;;;6095052;28;83082;-64
2021/01/01 09:57:38;;;;;;;27.15;14.93;;;23.30;41.60;;;;;;6099164;28;83901;-64
2021/01/01 10:00:38;;;;;;;34.70;15.65;;;23.20;41.20;;;;;;6096164;28;86751;-63
2021/01/01 10:03:39;;;;;;;27.48;15.85;;;23.20;40.90;;;;;;6100158;28;83202;-64
2021/01/01 10:06:39;;;;;;;29.40;16.73;;;23.30;40.90;;;;;;6100054;28;84277;-63
2021/01/01 10:09:39;;;;;;;35.95;18.58;;;23.30;40.80;;;;;;6100888;28;83188;-66
2021/01/01 10:12:40;;;;;;;34.47;18.73;;;23.30;40.90;;;;;;6101688;28;83197;-64
2021/01/01 10:15:40;;;;;;;34.15;18.73;;;23.30;41.40;;;;;;6098616;28;83401;-65
2021/01/01 10:18:41;;;;;;;39.33;19.88;;;23.30;42.00;;;;;;6100382;28;85405;-65
2021/01/01 10:21:42;;;;;;;42.35;21.35;;;23.20;41.60;;;;;;6102468;28;83018;-64
2021/01/01 10:24:42;;;;;;;38.65;20.05;;;23.30;42.60;;;;;;6099427;28;84550;-64
2021/01/01 10:27:43;;;;;;;34.80;19.10;;;23.40;42.50;;;;;;6100965;28;83773;-64
2021/01/01 10:30:43;;;;;;;36.53;19.65;;;23.40;41.40;;;;;;6099227;28;83358;-59
2021/01/01 10:33:44;;;;;;;39.10;20.48;;;23.40;40.60;;;;;;6094121;28;82945;-61
2021/01/01 10:36:44;;;;;;;38.20;20.98;;;23.50;39.80;;;;;;6101432;28;84470;-62
2021/01/01 10:39:45;;;;;;;37.42;20.52;;;23.60;39.20;;;;;;6101125;28;83128;-62
2021/01/01 10:42:45;;;;;;;38.42;20.85;;;23.60;38.90;;;;;;6102868;28;83534;-63
2021/01/01 10:45:46;;;;;;;36.92;20.65;;;23.60;38.60;;;;;;6098958;28;83448;-62
2021/01/01 10:48:46;;;;;;;38.90;20.98;;;23.70;38.20;;;;;;6090328;28;83177;-63
2021/01/01 10:51:47;;;;;;;36.53;20.10;;;23.70;37.90;;;;;;6092727;28;83262;-62
2021/01/01 10:54:47;;;;;;;39.78;20.73;;;23.70;37.50;;;;;;6101461;28;83272;-62
2021/01/01 10:57:48;;;;;;;39.42;22.48;;;23.80;37.30;;;;;;6099539;28;83724;-63
2021/01/01 11:00:49;;;;;;;42.00;21.73;;;23.80;36.80;;;;;;6099919;28;83425;-62
2021/01/01 11:03:49;;;;;;;42.35;23.23;;;23.90;36.40;;;;;;6097117;28;84590;-64
2021/01/01 11:06:50;;;;;;;38.50;21.70;;;23.80;36.20;;;;;;6101707;28;83243;-63
2021/01/01 11:09:50;;;;;;;39.30;21.88;;;23.90;36.00;;;;;;6100381;28;86783;-61
2021/01/01 11:12:51;;;;;;;39.78;22.17;;;23.90;36.10;;;;;;6101226;28;83453;-62
2021/01/01 12:22:37;;;;;;;39.53;22.75;;;23.70;35.10;;;;;;6096587;28;83639;-65
2021/01/01 12:25:38;;;;;;;41.75;22.35;;;23.70;34.20;;;;;;6089386;28;83634;-65
2021/01/01 12:28:38;;;;;;;37.08;22.17;;;23.70;34.10;;;;;;6072079;28;83379;-67
2021/01/01 12:31:39;;;;;;;44.10;23.73;;;23.70;34.20;;;;;;6097890;28;84717;-65
2021/01/01 12:34:39;;;;;;;41.35;22.17;;;23.60;34.20;;;;;;6067905;28;83559;-65
2021/01/01 12:37:40;;;;;;;38.67;23.15;;;23.60;34.40;;;;;;6084990;28;84005;-65
2021/01/01 12:40:40;;;;;;;35.80;21.40;;;23.60;33.30;;;;;;6097228;28;84264;-64
2021/01/01 12:43:41;;;;;;;37.97;21.80;;;23.50;33.60;;;;;;6095263;28;83653;-64
2021/01/01 12:46:41;;;;;;;41.45;23.70;;;23.60;33.70;;;;;;6091437;28;83448;-65
2021/01/01 12:49:42;;;;;;;41.25;23.60;;;23.50;33.60;;;;;;6097018;28;83481;-65
2021/01/01 12:52:42;;;;;;;38.13;22.55;;;23.50;33.60;;;;;;6096974;28;83823;-63
2021/01/01 12:55:43;;;;;;;43.08;24.17;;;23.50;33.30;;;;;;6097340;28;83765;-64
2021/01/01 12:58:43;;;;;;;40.90;23.30;;;23.50;33.50;;;;;;6080617;28;84155;-64
2021/01/01 13:01:44;;;;;;;38.50;24.42;;;23.50;33.30;;;;;;6096517;28;83281;-64
2021/01/01 13:04:44;;;;;;;42.03;23.92;;;23.50;33.00;;;;;;6095035;28;83318;-64
2021/01/01 13:07:45;;;;;;;41.25;23.20;;;23.40;32.90;;;;;;6093499;28;83375;-64
2021/01/01 13:10:45;;;;;;;41.13;23.40;;;23.40;32.90;;;;;;6094197;28;83681;-64
2021/01/01 13:13:46;;;;;;;44.53;24.50;;;23.40;33.00;;;;;;6091569;28;83499;-64
2021/01/01 13:16:46;;;;;;;39.35;23.63;;;23.40;33.10;;;;;;6100802;28;83156;-64
2021/01/01 13:19:47;;;;;;;40.65;23.48;;;23.40;33.20;;;;;;6093695;28;83431;-64
2021/01/01 13:22:47;;;;;;;42.10;23.25;;;23.40;33.30;;;;;;6095412;28;87516;-64
2021/01/01 13:25:48;;;;;;;45.83;25.23;;;23.30;33.10;;;;;;6097077;28;83386;-64
2021/01/01 13:28:48;;;;;;;44.28;25.55;;;23.30;33.00;;;;;;6096138;28;83285;-65
2021/01/01 13:31:49;;;;;;;43.92;25.48;;;23.30;32.90;;;;;;6101736;28;83560;-64
2021/01/01 13:34:49;;;;;;;45.65;25.17;;;23.30;32.80;;;;;;6096692;28;85874;-64
2021/01/01 13:37:50;;;;;;;42.50;25.17;;;23.20;32.80;;;;;;6085225;28;84638;-64
2021/01/01 13:40:50;;;;;;;44.25;24.80;;;23.20;33.10;;;;;;6098938;28;85739;-66
2021/01/01 13:43:53;;;;;;;44.78;25.15;;;23.20;32.90;;;;;;6093222;28;83128;-64
2021/01/01 13:46:53;;;;;;;44.15;24.67;;;23.20;32.70;;;;;;6097944;28;83363;-63
2021/01/01 13:49:55;;;;;;;44.63;24.90;;;23.20;32.70;;;;;;6103858;28;83457;-63
2021/01/01 13:52:55;;;;;;;44.22;23.75;;;23.20;32.80;;;;;;6100069;28;82939;-65
2021/01/01 13:55:56;;;;;;;43.80;25.23;;;23.20;32.80;;;;;;6101328;28;83285;-65
2021/01/01 13:58:56;;;;;;;48.28;24.83;;;23.00;32.80;;;;;;6097547;28;83409;-66
2021/01/01 14:01:57;;;;;;;43.90;25.25;;;23.20;32.90;;;;;;6100042;28;83298;-65
2021/01/01 14:04:57;;;;;;;40.97;23.95;;;23.10;32.90;;;;;;6099304;28;83199;-65
2021/01/01 14:07:58;;;;;;;45.72;25.48;;;23.10;33.00;;;;;;6102366;28;83728;-67
2021/01/01 14:10:58;;;;;;;45.10;24.17;;;23.10;33.40;;;;;;6091785;28;84016;-66
2021/01/01 14:13:59;;;;;;;46.63;24.77;;;23.20;33.20;;;;;;6096594;28;83211;-67
2021/01/01 14:16:59;;;;;;;44.58;24.20;;;23.20;32.80;;;;;;6100876;28;83591;-66
2021/01/01 14:20:00;;;;;;;42.97;24.75;;;23.20;33.30;;;;;;6098604;28;83520;-61
2021/01/01 14:23:00;;;;;;;49.05;26.67;;;23.30;33.70;;;;;;6097480;28;83858;-65
2021/01/01 14:26:01;;;;;;;41.47;24.30;;;23.20;33.60;;;;;;6096524;28;83121;-63
2021/01/01 14:29:01;;;;;;;45.55;25.05;;;23.30;33.60;;;;;;6101202;28;84433;-67
2021/01/01 14:32:02;;;;;;;44.90;24.45;;;23.30;33.30;;;;;;6100226;28;83159;-65
2021/01/01 14:35:02;;;;;;;47.70;25.83;;;23.40;33.40;;;;;;6097561;28;91235;-67
2021/01/01 14:38:03;;;;;;;44.10;25.48;;;23.40;33.50;;;;;;6100500;28;84889;-64
2021/01/01 14:41:03;;;;;;;44.47;24.73;;;23.50;33.60;;;;;;6090888;28;87683;-66
2021/01/01 14:44:08;;;;;;;45.90;25.45;;;23.50;34.10;;;;;;6093954;28;86589;-64
2021/01/01 14:47:08;;;;;;;43.92;25.70;;;23.50;33.40;;;;;;6094283;28;88691;-65
2021/01/01 14:50:09;;;;;;;44.55;25.52;;;23.50;33.30;;;;;;6099642;28;83284;-65
2021/01/01 14:53:09;;;;;;;44.30;25.10;;;23.50;33.10;;;;;;6097966;28;83085;-65
2021/01/01 14:56:10;;;;;;;44.88;25.23;;;23.60;33.00;;;;;;6095842;28;83177;-64
2021/01/01 14:59:10;;;;;;;47.35;25.80;;;23.60;32.90;;;;;;6095679;28;84500;-63
2021/01/01 15:02:11;;;;;;;41.95;26.25;;;23.60;34.00;;;;;;6099883;28;84324;-62
2021/01/01 15:05:11;;;;;;;48.75;25.42;;;23.60;33.50;;;;;;6095038;28;85670;-68
2021/01/01 15:08:12;;;;;;;42.50;24.13;;;23.60;33.10;;;;;;6107814;28;83090;-66
2021/01/01 15:11:12;;;;;;;45.30;24.60;;;23.70;34.10;;;;;;6093867;28;83996;-67
2021/01/01 15:14:13;;;;;;;44.75;25.98;;;23.70;33.10;;;;;;6089852;28;86843;-67
2021/01/01 15:17:13;;;;;;;42.90;24.67;;;23.70;33.10;;;;;;6095779;28;84021;-66
2021/01/01 15:20:14;;;;;;;43.13;24.02;;;23.70;33.00;;;;;;6088644;28;82960;-66
2021/01/01 15:23:14;;;;;;;44.35;24.73;;;23.70;32.80;;;;;;6090531;28;85028;-66
2021/01/01 15:26:15;;;;;;;41.58;24.38;;;23.70;33.00;;;;;;6091450;28;83413;-65
2021/01/01 15:29:15;;;;;;;43.75;25.25;;;23.70;33.30;;;;;;6095549;28;84076;-64
2021/01/01 15:32:16;;;;;;;42.22;24.60;;;23.70;33.10;;;;;;6097379;28;83791;-64
2021/01/01 15:35:18;;;;;;;41.28;24.65;;;23.70;33.10;;;;;;6095890;28;83227;-64
2021/01/01 15:38:18;;;;;;;37.95;22.63;;;23.70;33.40;;;;;;6099961;28;83548;-64
2021/01/01 15:41:19;;;;;;;38.63;24.35;;;23.70;33.60;;;;;;6098393;28;86880;-62
2021/01/01 15:44:20;;;;;;;45.65;24.88;;;23.70;33.50;;;;;;6098871;28;83586;-62
2021/01/01 15:47:21;;;;;;;42.92;24.25;;;23.70;33.80;;;;;;6100529;28;84035;-62
2021/01/01 15:50:22;;;;;;;41.97;24.48;;;23.70;33.70;;;;;;6098203;28;83585;-62
2021/01/01 15:53:22;;;;;;;44.67;24.25;;;23.70;33.80;;;;;;6100320;28;84661;-62
2021/01/01 15:56:23;;;;;;;41.90;23.15;;;23.70;33.70;;;;;;6095372;28;83485;-61
2021/01/01 15:59:23;;;;;;;46.58;23.98;;;23.70;33.70;;;;;;6095649;28;83466;-62
2021/01/01 16:02:24;;;;;;;39.10;22.92;;;23.70;33.80;;;;;;6098582;28;83613;-62
2021/01/01 16:05:24;;;;;;;46.47;25.73;;;23.70;33.70;;;;;;6097947;28;84390;-62
2021/01/01 16:08:25;;;;;;;40.85;23.77;;;23.70;33.90;;;;;;6099130;28;82952;-62
2021/01/01 16:11:25;;;;;;;47.88;24.08;;;23.60;33.80;;;;;;6087170;28;83865;-62
2021/01/01 16:14:26;;;;;;;40.78;24.05;;;23.60;33.80;;;;;;6099076;28;83880;-61
2021/01/01 16:17:26;;;;;;;43.70;24.38;;;23.60;33.80;;;;;;6099795;28;83262;-63
2021/01/01 16:20:29;;;;;;;51.78;25.60;;;23.50;33.60;;;;;;6096054;28;83342;-62
2021/01/01 16:23:29;;;;;;;44.03;23.65;;;23.50;33.60;;;;;;6097875;28;87511;-63